sensor_id;sensor_type;location;lat;lon;timestamp;P1;durP1;ratioP1;P2;durP2;ratioP2
2766;SDS011;1391;46.742;11.636;2022-07-03T00:01:57;4.43;;;3.90;;
2766;SDS011;1391;46.742;11.636;2022-07-03T00:04:24;5.07;;;3.90;;
2766;SDS011;1391;46.742;11.636;2022-07-03T00:06:52;6.37;;;3.77;;
2766;SDS011;1391;46.742;11.636;2022-07-03T00:09:21;4.07;;;3.67;;
2766;SDS011;1391;46.742;11.636;2022-07-03T00:11:49;4.40;;;3.80;;
2766;SDS011;1391;46.742;11.636;2022-07-03T00:14:17;5.40;;;4.10;;
2766;SDS011;1391;46.742;11.636;2022-07-03T00:16:44;4.77;;;4.20;;
2766;SDS011;1391;46.742;11.636;2022-07-03T00:19:12;6.17;;;4.80;;
2766;SDS011;1391;46.742;11.636;2022-07-03T00:21:41;6.43;;;4.30;;
2766;SDS011;1391;46.742;11.636;2022-07-03T00:24:16;5.00;;;4.10;;
2766;SDS011;1391;46.742;11.636;2022-07-03T00:26:51;8.63;;;4.10;;
2766;SDS011;1391;46.742;11.636;2022-07-03T00:29:20;7.27;;;4.03;;
2766;SDS011;1391;46.742;11.636;2022-07-03T00:31:51;6.30;;;4.30;;
2766;SDS011;1391;46.742;11.636;2022-07-03T00:34:18;7.97;;;4.20;;
2766;SDS011;1391;46.742;11.636;2022-07-03T00:36:47;5.50;;;3.83;;
2766;SDS011;1391;46.742;11.636;2022-07-03T00:39:14;5.43;;;4.40;;
2766;SDS011;1391;46.742;11.636;2022-07-03T00:41:43;4.50;;;4.10;;
2766;SDS011;1391;46.742;11.636;2022-07-03T00:44:13;6.90;;;4.20;;
2766;SDS011;1391;46.742;11.636;2022-07-03T00:46:41;7.40;;;4.20;;
2766;SDS011;1391;46.742;11.636;2022-07-03T00:49:11;5.97;;;4.50;;
2766;SDS011;1391;46.742;11.636;2022-07-03T00:51:39;6.17;;;4.30;;
2766;SDS011;1391;46.742;11.636;2022-07-03T00:54:07;6.13;;;4.00;;
2766;SDS011;1391;46.742;11.636;2022-07-03T00:56:38;6.20;;;4.40;;
2766;SDS011;1391;46.742;11.636;2022-07-03T00:59:07;5.07;;;4.53;;
2766;SDS011;1391;46.742;11.636;2022-07-03T01:01:36;6.07;;;4.10;;
2766;SDS011;1391;46.742;11.636;2022-07-03T01:04:10;7.90;;;4.47;;
2766;SDS011;1391;46.742;11.636;2022-07-03T01:06:51;4.37;;;3.97;;
2766;SDS011;1391;46.742;11.636;2022-07-03T01:09:23;6.17;;;4.50;;
2766;SDS011;1391;46.742;11.636;2022-07-03T01:12:03;9.93;;;4.50;;
2766;SDS011;1391;46.742;11.636;2022-07-03T01:14:38;5.63;;;4.20;;
2766;SDS011;1391;46.742;11.636;2022-07-03T01:17:20;4.83;;;4.43;;
2766;SDS011;1391;46.742;11.636;2022-07-03T01:19:53;6.10;;;4.17;;
2766;SDS011;1391;46.742;11.636;2022-07-03T01:22:41;6.57;;;4.53;;
2766;SDS011;1391;46.742;11.636;2022-07-03T01:25:14;6.33;;;4.50;;
2766;SDS011;1391;46.742;11.636;2022-07-03T01:27:58;10.07;;;4.77;;
2766;SDS011;1391;46.742;11.636;2022-07-03T01:30:35;8.67;;;4.90;;
2766;SDS011;1391;46.742;11.636;2022-07-03T01:33:11;6.13;;;4.40;;
2766;SDS011;1391;46.742;11.636;2022-07-03T01:35:46;5.10;;;4.23;;
2766;SDS011;1391;46.742;11.636;2022-07-03T01:38:23;7.07;;;4.87;;
2766;SDS011;1391;46.742;11.636;2022-07-03T01:40:55;9.63;;;4.97;;
2766;SDS011;1391;46.742;11.636;2022-07-03T01:43:25;8.17;;;4.40;;
2766;SDS011;1391;46.742;11.636;2022-07-03T01:45:57;6.40;;;4.90;;
2766;SDS011;1391;46.742;11.636;2022-07-03T01:48:27;6.30;;;4.80;;
2766;SDS011;1391;46.742;11.636;2022-07-03T01:50:57;5.20;;;4.70;;
2766;SDS011;1391;46.742;11.636;2022-07-03T01:53:25;5.17;;;4.67;;
2766;SDS011;1391;46.742;11.636;2022-07-03T01:55:54;5.00;;;4.47;;
2766;SDS011;1391;46.742;11.636;2022-07-03T01:58:24;7.00;;;4.93;;
2766;SDS011;1391;46.742;11.636;2022-07-03T02:00:57;7.77;;;4.70;;
2766;SDS011;1391;46.742;11.636;2022-07-03T02:03:29;6.07;;;4.40;;
2766;SDS011;1391;46.742;11.636;2022-07-03T02:06:02;6.07;;;4.30;;
2766;SDS011;1391;46.742;11.636;2022-07-03T02:08:37;5.97;;;4.57;;
2766;SDS011;1391;46.742;11.636;2022-07-03T02:11:12;6.60;;;4.40;;
2766;SDS011;1391;46.742;11.636;2022-07-03T02:13:50;6.40;;;5.03;;
2766;SDS011;1391;46.742;11.636;2022-07-03T02:16:22;6.43;;;5.33;;
2766;SDS011;1391;46.742;11.636;2022-07-03T02:19:02;6.67;;;5.20;;
2766;SDS011;1391;46.742;11.636;2022-07-03T02:21:31;5.33;;;4.83;;
2766;SDS011;1391;46.742;11.636;2022-07-03T02:24:09;7.37;;;4.77;;
2766;SDS011;1391;46.742;11.636;2022-07-03T02:26:46;5.73;;;5.13;;
2766;SDS011;1391;46.742;11.636;2022-07-03T02:29:25;5.87;;;4.97;;
2766;SDS011;1391;46.742;11.636;2022-07-03T02:31:59;7.67;;;5.30;;
2766;SDS011;1391;46.742;11.636;2022-07-03T02:34:30;6.93;;;4.90;;
2766;SDS011;1391;46.742;11.636;2022-07-03T02:37:03;5.67;;;4.97;;
2766;SDS011;1391;46.742;11.636;2022-07-03T02:39:43;6.93;;;4.83;;
2766;SDS011;1391;46.742;11.636;2022-07-03T02:42:19;5.73;;;4.70;;
2766;SDS011;1391;46.742;11.636;2022-07-03T02:44:59;7.70;;;4.93;;
2766;SDS011;1391;46.742;11.636;2022-07-03T02:47:30;6.40;;;5.00;;
2766;SDS011;1391;46.742;11.636;2022-07-03T02:50:07;5.53;;;4.97;;
2766;SDS011;1391;46.742;11.636;2022-07-03T02:52:42;7.00;;;4.80;;
2766;SDS011;1391;46.742;11.636;2022-07-03T02:55:26;8.13;;;4.90;;
2766;SDS011;1391;46.742;11.636;2022-07-03T03:01:24;5.90;;;5.17;;
2766;SDS011;1391;46.742;11.636;2022-07-03T03:04:09;7.67;;;4.47;;
2766;SDS011;1391;46.742;11.636;2022-07-03T03:06:48;6.57;;;5.20;;
2766;SDS011;1391;46.742;11.636;2022-07-03T03:09:24;5.70;;;5.17;;
2766;SDS011;1391;46.742;11.636;2022-07-03T03:12:00;6.57;;;5.10;;
2766;SDS011;1391;46.742;11.636;2022-07-03T03:14:30;10.77;;;4.93;;
2766;SDS011;1391;46.742;11.636;2022-07-03T03:17:07;6.77;;;5.30;;
2766;SDS011;1391;46.742;11.636;2022-07-03T03:19:36;6.17;;;5.47;;
2766;SDS011;1391;46.742;11.636;2022-07-03T03:22:09;7.13;;;5.23;;
2766;SDS011;1391;46.742;11.636;2022-07-03T03:24:46;5.67;;;5.00;;
2766;SDS011;1391;46.742;11.636;2022-07-03T03:27:13;5.80;;;5.30;;
2766;SDS011;1391;46.742;11.636;2022-07-03T03:29:42;10.73;;;5.50;;
2766;SDS011;1391;46.742;11.636;2022-07-03T03:32:11;9.83;;;5.70;;
2766;SDS011;1391;46.742;11.636;2022-07-03T03:34:41;7.07;;;5.47;;
2766;SDS011;1391;46.742;11.636;2022-07-03T03:37:09;5.27;;;4.77;;
2766;SDS011;1391;46.742;11.636;2022-07-03T03:39:36;9.57;;;5.30;;
2766;SDS011;1391;46.742;11.636;2022-07-03T03:42:06;6.17;;;5.50;;
2766;SDS011;1391;46.742;11.636;2022-07-03T03:44:34;7.43;;;5.47;;
2766;SDS011;1391;46.742;11.636;2022-07-03T03:47:01;6.10;;;5.50;;
2766;SDS011;1391;46.742;11.636;2022-07-03T03:49:31;6.30;;;5.27;;
2766;SDS011;1391;46.742;11.636;2022-07-03T03:51:59;6.50;;;5.70;;
2766;SDS011;1391;46.742;11.636;2022-07-03T03:54:26;6.93;;;5.70;;
2766;SDS011;1391;46.742;11.636;2022-07-03T03:56:54;10.10;;;5.80;;
2766;SDS011;1391;46.742;11.636;2022-07-03T03:59:21;9.17;;;5.97;;
2766;SDS011;1391;46.742;11.636;2022-07-03T04:01:48;9.47;;;6.03;;
2766;SDS011;1391;46.742;11.636;2022-07-03T04:04:16;6.43;;;5.50;;
2766;SDS011;1391;46.742;11.636;2022-07-03T04:06:45;5.93;;;5.27;;
2766;SDS011;1391;46.742;11.636;2022-07-03T04:09:12;7.93;;;5.13;;
2766;SDS011;1391;46.742;11.636;2022-07-03T04:11:40;9.07;;;5.57;;
2766;SDS011;1391;46.742;11.636;2022-07-03T04:14:07;13.03;;;5.93;;
2766;SDS011;1391;46.742;11.636;2022-07-03T04:16:34;10.33;;;6.33;;
2766;SDS011;1391;46.742;11.636;2022-07-03T04:19:01;6.10;;;5.50;;
2766;SDS011;1391;46.742;11.636;2022-07-03T04:21:29;7.83;;;5.87;;
2766;SDS011;1391;46.742;11.636;2022-07-03T04:23:57;7.07;;;5.77;;
2766;SDS011;1391;46.742;11.636;2022-07-03T04:26:25;9.37;;;5.80;;
2766;SDS011;1391;46.742;11.636;2022-07-03T04:28:52;6.40;;;5.73;;
2766;SDS011;1391;46.742;11.636;2022-07-03T04:31:19;8.50;;;5.87;;
2766;SDS011;1391;46.742;11.636;2022-07-03T04:33:47;7.13;;;6.00;;
2766;SDS011;1391;46.742;11.636;2022-07-03T04:36:14;6.57;;;5.93;;
2766;SDS011;1391;46.742;11.636;2022-07-03T04:38:43;6.33;;;5.40;;
2766;SDS011;1391;46.742;11.636;2022-07-03T04:41:12;9.97;;;6.00;;
2766;SDS011;1391;46.742;11.636;2022-07-03T04:43:39;8.80;;;6.00;;
2766;SDS011;1391;46.742;11.636;2022-07-03T04:46:06;7.30;;;5.53;;
2766;SDS011;1391;46.742;11.636;2022-07-03T04:48:34;8.27;;;5.53;;
2766;SDS011;1391;46.742;11.636;2022-07-03T04:51:01;11.43;;;7.33;;
2766;SDS011;1391;46.742;11.636;2022-07-03T04:53:28;9.60;;;6.33;;
2766;SDS011;1391;46.742;11.636;2022-07-03T04:55:56;6.93;;;5.97;;
2766;SDS011;1391;46.742;11.636;2022-07-03T04:58:24;8.67;;;5.63;;
2766;SDS011;1391;46.742;11.636;2022-07-03T05:00:52;7.93;;;6.30;;
2766;SDS011;1391;46.742;11.636;2022-07-03T05:03:19;8.60;;;6.67;;
2766;SDS011;1391;46.742;11.636;2022-07-03T05:05:46;9.60;;;6.20;;
2766;SDS011;1391;46.742;11.636;2022-07-03T05:08:14;6.83;;;6.13;;
2766;SDS011;1391;46.742;11.636;2022-07-03T05:10:41;6.67;;;5.97;;
2766;SDS011;1391;46.742;11.636;2022-07-03T05:13:09;7.53;;;5.70;;
2766;SDS011;1391;46.742;11.636;2022-07-03T05:15:37;7.20;;;6.20;;
2766;SDS011;1391;46.742;11.636;2022-07-03T05:18:04;7.20;;;6.00;;
2766;SDS011;1391;46.742;11.636;2022-07-03T05:20:32;9.00;;;6.67;;
2766;SDS011;1391;46.742;11.636;2022-07-03T05:23:01;8.20;;;6.13;;
2766;SDS011;1391;46.742;11.636;2022-07-03T05:25:29;6.77;;;5.83;;
2766;SDS011;1391;46.742;11.636;2022-07-03T05:27:57;10.17;;;6.33;;
2766;SDS011;1391;46.742;11.636;2022-07-03T05:30:25;7.00;;;6.30;;
2766;SDS011;1391;46.742;11.636;2022-07-03T05:32:54;8.67;;;6.30;;
2766;SDS011;1391;46.742;11.636;2022-07-03T05:35:21;9.77;;;6.53;;
2766;SDS011;1391;46.742;11.636;2022-07-03T05:37:49;8.80;;;6.63;;
2766;SDS011;1391;46.742;11.636;2022-07-03T05:40:16;9.27;;;5.93;;
2766;SDS011;1391;46.742;11.636;2022-07-03T05:42:43;6.97;;;6.37;;
2766;SDS011;1391;46.742;11.636;2022-07-03T05:45:11;9.73;;;6.97;;
2766;SDS011;1391;46.742;11.636;2022-07-03T05:47:38;7.77;;;6.40;;
2766;SDS011;1391;46.742;11.636;2022-07-03T05:50:08;6.97;;;6.27;;
2766;SDS011;1391;46.742;11.636;2022-07-03T05:52:36;7.40;;;6.60;;
2766;SDS011;1391;46.742;11.636;2022-07-03T05:55:04;10.23;;;5.83;;
2766;SDS011;1391;46.742;11.636;2022-07-03T05:57:32;6.80;;;6.10;;
2766;SDS011;1391;46.742;11.636;2022-07-03T05:59:59;9.23;;;6.17;;
2766;SDS011;1391;46.742;11.636;2022-07-03T06:02:27;8.13;;;5.90;;
2766;SDS011;1391;46.742;11.636;2022-07-03T06:04:55;10.10;;;5.83;;
2766;SDS011;1391;46.742;11.636;2022-07-03T06:07:23;7.07;;;5.87;;
2766;SDS011;1391;46.742;11.636;2022-07-03T06:09:51;10.00;;;6.10;;
2766;SDS011;1391;46.742;11.636;2022-07-03T06:12:18;6.50;;;5.77;;
2766;SDS011;1391;46.742;11.636;2022-07-03T06:14:46;9.47;;;5.80;;
2766;SDS011;1391;46.742;11.636;2022-07-03T06:17:13;10.10;;;5.93;;
2766;SDS011;1391;46.742;11.636;2022-07-03T06:19:40;7.57;;;6.17;;
2766;SDS011;1391;46.742;11.636;2022-07-03T06:22:07;6.70;;;5.40;;
2766;SDS011;1391;46.742;11.636;2022-07-03T06:24:36;8.37;;;6.30;;
2766;SDS011;1391;46.742;11.636;2022-07-03T06:27:04;6.67;;;5.77;;
2766;SDS011;1391;46.742;11.636;2022-07-03T06:29:31;7.07;;;5.63;;
2766;SDS011;1391;46.742;11.636;2022-07-03T06:31:59;8.43;;;6.20;;
2766;SDS011;1391;46.742;11.636;2022-07-03T06:34:26;7.77;;;5.47;;
2766;SDS011;1391;46.742;11.636;2022-07-03T06:36:53;9.57;;;6.33;;
2766;SDS011;1391;46.742;11.636;2022-07-03T06:39:20;6.20;;;5.50;;
2766;SDS011;1391;46.742;11.636;2022-07-03T06:41:49;7.90;;;5.33;;
2766;SDS011;1391;46.742;11.636;2022-07-03T06:44:16;6.03;;;5.23;;
2766;SDS011;1391;46.742;11.636;2022-07-03T06:46:43;5.57;;;5.03;;
2766;SDS011;1391;46.742;11.636;2022-07-03T06:49:11;9.63;;;5.30;;
2766;SDS011;1391;46.742;11.636;2022-07-03T06:51:38;11.07;;;5.43;;
2766;SDS011;1391;46.742;11.636;2022-07-03T06:54:05;7.83;;;5.30;;
2766;SDS011;1391;46.742;11.636;2022-07-03T06:56:33;6.10;;;5.00;;
2766;SDS011;1391;46.742;11.636;2022-07-03T06:59:01;5.83;;;4.63;;
2766;SDS011;1391;46.742;11.636;2022-07-03T07:01:29;5.80;;;5.10;;
2766;SDS011;1391;46.742;11.636;2022-07-03T07:03:57;7.00;;;5.30;;
2766;SDS011;1391;46.742;11.636;2022-07-03T07:06:24;6.20;;;4.93;;
2766;SDS011;1391;46.742;11.636;2022-07-03T07:08:51;4.77;;;4.33;;
2766;SDS011;1391;46.742;11.636;2022-07-03T07:11:19;6.57;;;4.80;;
2766;SDS011;1391;46.742;11.636;2022-07-03T07:13:46;7.87;;;4.83;;
2766;SDS011;1391;46.742;11.636;2022-07-03T07:16:14;7.77;;;4.97;;
2766;SDS011;1391;46.742;11.636;2022-07-03T07:18:42;5.97;;;4.63;;
2766;SDS011;1391;46.742;11.636;2022-07-03T07:21:09;4.93;;;4.20;;
2766;SDS011;1391;46.742;11.636;2022-07-03T07:23:37;8.23;;;4.73;;
2766;SDS011;1391;46.742;11.636;2022-07-03T07:26:04;9.47;;;4.87;;
2766;SDS011;1391;46.742;11.636;2022-07-03T07:28:32;7.10;;;4.97;;
2766;SDS011;1391;46.742;11.636;2022-07-03T07:31:00;6.20;;;4.70;;
2766;SDS011;1391;46.742;11.636;2022-07-03T07:33:29;8.83;;;4.77;;
2766;SDS011;1391;46.742;11.636;2022-07-03T07:35:56;6.68;;;4.43;;
2766;SDS011;1391;46.742;11.636;2022-07-03T07:38:23;5.22;;;4.60;;
2766;SDS011;1391;46.742;11.636;2022-07-03T07:40:51;7.28;;;4.57;;
2766;SDS011;1391;46.742;11.636;2022-07-03T07:43:18;6.88;;;4.63;;
2766;SDS011;1391;46.742;11.636;2022-07-03T07:45:45;5.72;;;4.53;;
2766;SDS011;1391;46.742;11.636;2022-07-03T07:48:13;6.32;;;4.20;;
2766;SDS011;1391;46.742;11.636;2022-07-03T07:50:42;5.13;;;4.28;;
2766;SDS011;1391;46.742;11.636;2022-07-03T07:53:09;6.03;;;4.38;;
2766;SDS011;1391;46.742;11.636;2022-07-03T07:55:36;9.55;;;4.35;;
2766;SDS011;1391;46.742;11.636;2022-07-03T07:58:03;6.68;;;4.05;;
2766;SDS011;1391;46.742;11.636;2022-07-03T08:00:30;5.47;;;4.40;;
2766;SDS011;1391;46.742;11.636;2022-07-03T08:02:58;4.55;;;3.70;;
2766;SDS011;1391;46.742;11.636;2022-07-03T08:05:44;7.25;;;4.18;;
2766;SDS011;1391;46.742;11.636;2022-07-03T08:08:12;4.18;;;3.78;;
2766;SDS011;1391;46.742;11.636;2022-07-03T08:10:42;5.63;;;3.90;;
2766;SDS011;1391;46.742;11.636;2022-07-03T08:13:11;5.50;;;4.22;;
2766;SDS011;1391;46.742;11.636;2022-07-03T08:15:41;5.03;;;3.90;;
2766;SDS011;1391;46.742;11.636;2022-07-03T08:18:09;4.78;;;3.60;;
2766;SDS011;1391;46.742;11.636;2022-07-03T08:20:37;3.92;;;3.53;;
2766;SDS011;1391;46.742;11.636;2022-07-03T08:23:05;4.88;;;3.53;;
2766;SDS011;1391;46.742;11.636;2022-07-03T08:25:33;4.40;;;3.28;;
2766;SDS011;1391;46.742;11.636;2022-07-03T08:28:00;4.32;;;3.92;;
2766;SDS011;1391;46.742;11.636;2022-07-03T08:30:28;5.65;;;3.85;;
2766;SDS011;1391;46.742;11.636;2022-07-03T08:32:56;5.25;;;4.22;;
2766;SDS011;1391;46.742;11.636;2022-07-03T08:35:24;8.57;;;4.13;;
2766;SDS011;1391;46.742;11.636;2022-07-03T08:37:52;6.28;;;3.60;;
2766;SDS011;1391;46.742;11.636;2022-07-03T08:40:22;4.78;;;3.70;;
2766;SDS011;1391;46.742;11.636;2022-07-03T08:42:49;7.43;;;3.40;;
2766;SDS011;1391;46.742;11.636;2022-07-03T08:45:20;6.07;;;3.20;;
2766;SDS011;1391;46.742;11.636;2022-07-03T08:47:49;6.28;;;3.60;;
2766;SDS011;1391;46.742;11.636;2022-07-03T08:50:19;7.28;;;3.90;;
2766;SDS011;1391;46.742;11.636;2022-07-03T08:52:47;5.78;;;4.03;;
2766;SDS011;1391;46.742;11.636;2022-07-03T08:55:15;5.10;;;3.80;;
2766;SDS011;1391;46.742;11.636;2022-07-03T08:57:46;6.13;;;3.78;;
2766;SDS011;1391;46.742;11.636;2022-07-03T09:00:15;6.50;;;4.00;;
2766;SDS011;1391;46.742;11.636;2022-07-03T09:02:44;6.78;;;3.80;;
2766;SDS011;1391;46.742;11.636;2022-07-03T09:05:14;6.57;;;4.25;;
2766;SDS011;1391;46.742;11.636;2022-07-03T09:07:44;5.07;;;3.47;;
2766;SDS011;1391;46.742;11.636;2022-07-03T09:10:13;6.18;;;3.80;;
2766;SDS011;1391;46.742;11.636;2022-07-03T09:12:43;4.13;;;3.70;;
2766;SDS011;1391;46.742;11.636;2022-07-03T09:15:14;4.80;;;3.42;;
2766;SDS011;1391;46.742;11.636;2022-07-03T09:17:55;4.88;;;3.65;;
2766;SDS011;1391;46.742;11.636;2022-07-03T09:20:29;4.55;;;3.90;;
2766;SDS011;1391;46.742;11.636;2022-07-03T09:23:08;6.30;;;3.75;;
2766;SDS011;1391;46.742;11.636;2022-07-03T09:25:50;4.25;;;3.42;;
2766;SDS011;1391;46.742;11.636;2022-07-03T09:28:24;4.45;;;3.42;;
2766;SDS011;1391;46.742;11.636;2022-07-03T09:31:09;7.53;;;3.58;;
2766;SDS011;1391;46.742;11.636;2022-07-03T09:33:47;4.55;;;3.28;;
2766;SDS011;1391;46.742;11.636;2022-07-03T09:36:21;3.53;;;3.17;;
2766;SDS011;1391;46.742;11.636;2022-07-03T09:38:49;5.72;;;3.60;;
2766;SDS011;1391;46.742;11.636;2022-07-03T09:41:16;4.28;;;3.53;;
2766;SDS011;1391;46.742;11.636;2022-07-03T09:43:45;5.82;;;3.70;;
2766;SDS011;1391;46.742;11.636;2022-07-03T09:46:12;5.45;;;3.28;;
2766;SDS011;1391;46.742;11.636;2022-07-03T09:48:40;6.43;;;3.03;;
2766;SDS011;1391;46.742;11.636;2022-07-03T09:51:08;6.85;;;3.00;;
2766;SDS011;1391;46.742;11.636;2022-07-03T09:53:49;4.63;;;3.13;;
2766;SDS011;1391;46.742;11.636;2022-07-03T09:56:22;15.90;;;3.40;;
2766;SDS011;1391;46.742;11.636;2022-07-03T10:01:44;3.88;;;3.30;;
2766;SDS011;1391;46.742;11.636;2022-07-03T10:04:14;5.22;;;2.80;;
2766;SDS011;1391;46.742;11.636;2022-07-03T10:06:50;5.57;;;2.70;;
2766;SDS011;1391;46.742;11.636;2022-07-03T10:09:21;3.05;;;2.70;;
2766;SDS011;1391;46.742;11.636;2022-07-03T10:11:50;3.92;;;2.80;;
2766;SDS011;1391;46.742;11.636;2022-07-03T10:14:21;4.18;;;2.28;;
2766;SDS011;1391;46.742;11.636;2022-07-03T10:16:50;4.38;;;2.45;;
2766;SDS011;1391;46.742;11.636;2022-07-03T10:19:18;2.35;;;1.75;;
2766;SDS011;1391;46.742;11.636;2022-07-03T10:21:49;4.03;;;1.70;;
2766;SDS011;1391;46.742;11.636;2022-07-03T10:24:20;2.55;;;2.05;;
2766;SDS011;1391;46.742;11.636;2022-07-03T10:26:49;2.55;;;1.85;;
2766;SDS011;1391;46.742;11.636;2022-07-03T10:29:21;3.05;;;2.10;;
2766;SDS011;1391;46.742;11.636;2022-07-03T10:31:50;2.75;;;1.60;;
2766;SDS011;1391;46.742;11.636;2022-07-03T10:34:18;4.07;;;1.58;;
2766;SDS011;1391;46.742;11.636;2022-07-03T10:36:49;2.80;;;1.45;;
2766;SDS011;1391;46.742;11.636;2022-07-03T10:39:31;1.88;;;1.77;;
2766;SDS011;1391;46.742;11.636;2022-07-03T10:42:08;1.83;;;1.40;;
2766;SDS011;1391;46.742;11.636;2022-07-03T10:45:09;3.40;;;1.70;;
2766;SDS011;1391;46.742;11.636;2022-07-03T10:47:39;1.95;;;1.52;;
2766;SDS011;1391;46.742;11.636;2022-07-03T10:50:10;2.15;;;1.48;;
2766;SDS011;1391;46.742;11.636;2022-07-03T10:52:38;1.70;;;1.60;;
2766;SDS011;1391;46.742;11.636;2022-07-03T10:55:07;2.67;;;1.60;;
2766;SDS011;1391;46.742;11.636;2022-07-03T10:57:35;2.72;;;1.40;;
2766;SDS011;1391;46.742;11.636;2022-07-03T11:00:04;2.15;;;1.80;;
2766;SDS011;1391;46.742;11.636;2022-07-03T11:02:45;1.70;;;1.60;;
2766;SDS011;1391;46.742;11.636;2022-07-03T11:05:19;2.58;;;1.48;;
2766;SDS011;1391;46.742;11.636;2022-07-03T11:08:04;3.80;;;1.58;;
2766;SDS011;1391;46.742;11.636;2022-07-03T11:10:37;1.85;;;1.73;;
2766;SDS011;1391;46.742;11.636;2022-07-03T11:13:10;2.15;;;1.95;;
2766;SDS011;1391;46.742;11.636;2022-07-03T11:15:49;1.65;;;1.55;;
2766;SDS011;1391;46.742;11.636;2022-07-03T11:18:26;2.28;;;1.58;;
2766;SDS011;1391;46.742;11.636;2022-07-03T11:21:15;4.43;;;1.73;;
2766;SDS011;1391;46.742;11.636;2022-07-03T11:24:03;1.90;;;1.40;;
2766;SDS011;1391;46.742;11.636;2022-07-03T11:29:55;4.00;;;1.60;;
2766;SDS011;1391;46.742;11.636;2022-07-03T11:38:19;1.30;;;1.20;;
2766;SDS011;1391;46.742;11.636;2022-07-03T11:40:56;1.55;;;1.23;;
2766;SDS011;1391;46.742;11.636;2022-07-03T11:43:26;1.48;;;1.38;;
2766;SDS011;1391;46.742;11.636;2022-07-03T11:45:54;1.77;;;1.30;;
2766;SDS011;1391;46.742;11.636;2022-07-03T11:48:23;1.70;;;1.50;;
2766;SDS011;1391;46.742;11.636;2022-07-03T11:50:52;1.40;;;1.20;;
2766;SDS011;1391;46.742;11.636;2022-07-03T11:53:27;1.20;;;1.10;;
2766;SDS011;1391;46.742;11.636;2022-07-03T11:55:57;3.17;;;1.38;;
2766;SDS011;1391;46.742;11.636;2022-07-03T11:58:39;2.25;;;1.30;;
2766;SDS011;1391;46.742;11.636;2022-07-03T12:01:09;4.47;;;1.40;;
2766;SDS011;1391;46.742;11.636;2022-07-03T12:03:38;4.07;;;1.65;;
2766;SDS011;1391;46.742;11.636;2022-07-03T12:06:05;2.35;;;1.23;;
2766;SDS011;1391;46.742;11.636;2022-07-03T12:08:33;2.88;;;1.20;;
2766;SDS011;1391;46.742;11.636;2022-07-03T12:11:01;1.20;;;1.17;;
2766;SDS011;1391;46.742;11.636;2022-07-03T12:13:34;2.28;;;1.40;;
2766;SDS011;1391;46.742;11.636;2022-07-03T12:16:03;3.63;;;1.15;;
2766;SDS011;1391;46.742;11.636;2022-07-03T12:18:44;3.38;;;1.27;;
2766;SDS011;1391;46.742;11.636;2022-07-03T12:21:14;2.47;;;1.48;;
2766;SDS011;1391;46.742;11.636;2022-07-03T12:23:43;1.25;;;1.20;;
2766;SDS011;1391;46.742;11.636;2022-07-03T12:26:12;1.70;;;1.17;;
2766;SDS011;1391;46.742;11.636;2022-07-03T12:28:40;5.63;;;1.80;;
2766;SDS011;1391;46.742;11.636;2022-07-03T12:31:08;1.30;;;1.20;;
2766;SDS011;1391;46.742;11.636;2022-07-03T12:33:35;1.40;;;1.20;;
2766;SDS011;1391;46.742;11.636;2022-07-03T12:36:05;1.63;;;1.30;;
2766;SDS011;1391;46.742;11.636;2022-07-03T12:38:35;2.25;;;1.70;;
2766;SDS011;1391;46.742;11.636;2022-07-03T12:41:03;2.20;;;1.65;;
2766;SDS011;1391;46.742;11.636;2022-07-03T12:43:39;3.47;;;1.70;;
2766;SDS011;1391;46.742;11.636;2022-07-03T12:46:16;2.63;;;1.48;;
2766;SDS011;1391;46.742;11.636;2022-07-03T12:48:46;1.75;;;1.50;;
2766;SDS011;1391;46.742;11.636;2022-07-03T12:51:17;3.00;;;1.48;;
2766;SDS011;1391;46.742;11.636;2022-07-03T12:54:07;3.60;;;1.10;;
2766;SDS011;1391;46.742;11.636;2022-07-03T12:56:35;3.28;;;1.05;;
2766;SDS011;1391;46.742;11.636;2022-07-03T12:59:03;2.35;;;1.30;;
2766;SDS011;1391;46.742;11.636;2022-07-03T13:01:41;2.08;;;1.15;;
2766;SDS011;1391;46.742;11.636;2022-07-03T13:04:10;1.25;;;1.15;;
2766;SDS011;1391;46.742;11.636;2022-07-03T13:06:42;5.05;;;1.55;;
2766;SDS011;1391;46.742;11.636;2022-07-03T13:09:10;1.45;;;1.35;;
2766;SDS011;1391;46.742;11.636;2022-07-03T13:11:41;1.15;;;1.00;;
2766;SDS011;1391;46.742;11.636;2022-07-03T13:14:09;1.20;;;1.13;;
2766;SDS011;1391;46.742;11.636;2022-07-03T13:16:42;5.47;;;1.35;;
2766;SDS011;1391;46.742;11.636;2022-07-03T13:19:12;1.52;;;1.30;;
2766;SDS011;1391;46.742;11.636;2022-07-03T13:21:43;1.33;;;1.23;;
2766;SDS011;1391;46.742;11.636;2022-07-03T13:24:11;1.40;;;1.30;;
2766;SDS011;1391;46.742;11.636;2022-07-03T13:26:40;1.23;;;1.13;;
2766;SDS011;1391;46.742;11.636;2022-07-03T13:29:08;3.35;;;1.55;;
2766;SDS011;1391;46.742;11.636;2022-07-03T13:31:35;1.80;;;1.20;;
2766;SDS011;1391;46.742;11.636;2022-07-03T13:34:06;1.40;;;1.27;;
2766;SDS011;1391;46.742;11.636;2022-07-03T13:36:33;1.30;;;1.20;;
2766;SDS011;1391;46.742;11.636;2022-07-03T13:39:02;1.85;;;1.30;;
2766;SDS011;1391;46.742;11.636;2022-07-03T13:41:30;1.73;;;1.45;;
2766;SDS011;1391;46.742;11.636;2022-07-03T13:47:23;2.92;;;1.27;;
2766;SDS011;1391;46.742;11.636;2022-07-03T13:49:50;1.35;;;1.15;;
2766;SDS011;1391;46.742;11.636;2022-07-03T13:52:18;1.60;;;1.33;;
2766;SDS011;1391;46.742;11.636;2022-07-03T13:54:46;2.90;;;1.35;;
2766;SDS011;1391;46.742;11.636;2022-07-03T13:57:14;3.13;;;2.10;;
2766;SDS011;1391;46.742;11.636;2022-07-03T13:59:41;3.95;;;1.60;;
2766;SDS011;1391;46.742;11.636;2022-07-03T14:02:08;4.47;;;1.58;;
2766;SDS011;1391;46.742;11.636;2022-07-03T14:04:36;2.83;;;1.70;;
2766;SDS011;1391;46.742;11.636;2022-07-03T14:07:03;1.50;;;1.40;;
2766;SDS011;1391;46.742;11.636;2022-07-03T14:09:31;2.70;;;1.23;;
2766;SDS011;1391;46.742;11.636;2022-07-03T14:11:59;1.85;;;1.30;;
2766;SDS011;1391;46.742;11.636;2022-07-03T14:14:27;1.33;;;1.23;;
2766;SDS011;1391;46.742;11.636;2022-07-03T14:16:54;2.75;;;1.40;;
2766;SDS011;1391;46.742;11.636;2022-07-03T14:19:22;2.50;;;1.70;;
2766;SDS011;1391;46.742;11.636;2022-07-03T14:21:50;6.15;;;1.50;;
2766;SDS011;1391;46.742;11.636;2022-07-03T14:24:18;1.35;;;1.25;;
2766;SDS011;1391;46.742;11.636;2022-07-03T14:26:45;1.42;;;1.33;;
2766;SDS011;1391;46.742;11.636;2022-07-03T14:29:42;2.75;;;1.40;;
2766;SDS011;1391;46.742;11.636;2022-07-03T14:32:27;3.50;;;1.70;;
2766;SDS011;1391;46.742;11.636;2022-07-03T14:34:55;1.58;;;1.40;;
2766;SDS011;1391;46.742;11.636;2022-07-03T14:37:22;2.08;;;1.52;;
2766;SDS011;1391;46.742;11.636;2022-07-03T14:39:50;1.98;;;1.60;;
2766;SDS011;1391;46.742;11.636;2022-07-03T14:42:18;3.45;;;1.67;;
2766;SDS011;1391;46.742;11.636;2022-07-03T14:44:46;6.97;;;1.92;;
2766;SDS011;1391;46.742;11.636;2022-07-03T14:47:14;1.80;;;1.70;;
2766;SDS011;1391;46.742;11.636;2022-07-03T14:49:41;1.95;;;1.85;;
2766;SDS011;1391;46.742;11.636;2022-07-03T14:52:08;1.60;;;1.50;;
2766;SDS011;1391;46.742;11.636;2022-07-03T14:54:36;3.55;;;1.80;;
2766;SDS011;1391;46.742;11.636;2022-07-03T14:57:06;1.50;;;1.40;;
2766;SDS011;1391;46.742;11.636;2022-07-03T14:59:46;5.88;;;2.00;;
2766;SDS011;1391;46.742;11.636;2022-07-03T15:02:31;2.33;;;1.70;;
2766;SDS011;1391;46.742;11.636;2022-07-03T15:05:09;14.63;;;2.50;;
2766;SDS011;1391;46.742;11.636;2022-07-03T15:07:38;1.92;;;1.75;;
2766;SDS011;1391;46.742;11.636;2022-07-03T15:10:08;1.90;;;1.80;;
2766;SDS011;1391;46.742;11.636;2022-07-03T15:12:40;3.15;;;1.50;;
2766;SDS011;1391;46.742;11.636;2022-07-03T15:15:10;2.90;;;1.38;;
2766;SDS011;1391;46.742;11.636;2022-07-03T15:17:40;2.53;;;1.55;;
2766;SDS011;1391;46.742;11.636;2022-07-03T15:20:11;2.20;;;1.63;;
2766;SDS011;1391;46.742;11.636;2022-07-03T15:22:40;1.98;;;1.50;;
2766;SDS011;1391;46.742;11.636;2022-07-03T15:25:13;1.70;;;1.60;;
2766;SDS011;1391;46.742;11.636;2022-07-03T15:27:49;1.90;;;1.70;;
2766;SDS011;1391;46.742;11.636;2022-07-03T15:30:21;2.65;;;1.80;;
2766;SDS011;1391;46.742;11.636;2022-07-03T15:32:50;3.15;;;1.48;;
2766;SDS011;1391;46.742;11.636;2022-07-03T15:35:19;2.13;;;1.70;;
2766;SDS011;1391;46.742;11.636;2022-07-03T15:37:56;1.88;;;1.75;;
2766;SDS011;1391;46.742;11.636;2022-07-03T15:40:39;1.75;;;1.63;;